sensor_id;sensor_type;location;lat;lon;timestamp;pressure;altitude;pressure_sealevel;temperature;humidity
73220;BME280;61434;43.538;-5.688;2022-11-03T00:00:25;101309.47;;;15.91;64.99
73220;BME280;61434;43.538;-5.688;2022-11-03T00:02:50;101306.75;;;15.91;65.23
73220;BME280;61434;43.538;-5.688;2022-11-03T00:05:16;101310.44;;;15.90;65.29
73220;BME280;61434;43.538;-5.688;2022-11-03T00:08:03;101302.56;;;15.97;64.73
73220;BME280;61434;43.538;-5.688;2022-11-03T00:10:29;101306.59;;;15.93;65.19
73220;BME280;61434;43.538;-5.688;2022-11-03T00:12:54;101311.16;;;15.92;65.17
73220;BME280;61434;43.538;-5.688;2022-11-03T00:15:20;101303.72;;;15.94;65.18
73220;BME280;61434;43.538;-5.688;2022-11-03T00:17:45;101300.13;;;15.94;65.22
73220;BME280;61434;43.538;-5.688;2022-11-03T00:20:11;101307.59;;;15.92;64.93
73220;BME280;61434;43.538;-5.688;2022-11-03T00:22:36;101310.72;;;15.97;64.92
73220;BME280;61434;43.538;-5.688;2022-11-03T00:25:02;101320.34;;;15.91;64.47
73220;BME280;61434;43.538;-5.688;2022-11-03T00:27:28;101311.34;;;15.90;64.70
73220;BME280;61434;43.538;-5.688;2022-11-03T00:29:53;101300.75;;;15.87;64.94
73220;BME280;61434;43.538;-5.688;2022-11-03T00:32:19;101276.72;;;15.93;64.77
73220;BME280;61434;43.538;-5.688;2022-11-03T00:34:44;101272.50;;;15.98;64.64
73220;BME280;61434;43.538;-5.688;2022-11-03T00:37:10;101273.75;;;16.04;64.25
73220;BME280;61434;43.538;-5.688;2022-11-03T00:39:35;101272.34;;;16.00;64.17
73220;BME280;61434;43.538;-5.688;2022-11-03T00:42:01;101253.78;;;15.95;64.46
73220;BME280;61434;43.538;-5.688;2022-11-03T00:44:26;101258.16;;;15.88;64.58
73220;BME280;61434;43.538;-5.688;2022-11-03T00:46:52;101260.91;;;16.06;64.18
73220;BME280;61434;43.538;-5.688;2022-11-03T00:49:17;101256.44;;;16.05;64.14
73220;BME280;61434;43.538;-5.688;2022-11-03T00:51:42;101249.47;;;16.02;64.10
73220;BME280;61434;43.538;-5.688;2022-11-03T00:54:08;101241.16;;;16.04;64.24
73220;BME280;61434;43.538;-5.688;2022-11-03T00:56:38;101241.16;;;16.04;63.93
73220;BME280;61434;43.538;-5.688;2022-11-03T00:59:06;101238.81;;;16.09;63.85
73220;BME280;61434;43.538;-5.688;2022-11-03T01:01:49;101223.72;;;16.06;63.57
73220;BME280;61434;43.538;-5.688;2022-11-03T01:04:16;101226.16;;;16.00;63.23
73220;BME280;61434;43.538;-5.688;2022-11-03T01:07:01;101210.59;;;16.02;63.79
73220;BME280;61434;43.538;-5.688;2022-11-03T01:09:28;101201.72;;;16.00;63.90
73220;BME280;61434;43.538;-5.688;2022-11-03T01:12:01;101200.88;;;16.17;63.77
73220;BME280;61434;43.538;-5.688;2022-11-03T01:14:30;101201.16;;;16.14;64.37
73220;BME280;61434;43.538;-5.688;2022-11-03T01:16:56;101196.38;;;16.08;64.55
73220;BME280;61434;43.538;-5.688;2022-11-03T01:19:22;101189.41;;;16.05;64.20
73220;BME280;61434;43.538;-5.688;2022-11-03T01:21:48;101188.91;;;15.92;64.50
73220;BME280;61434;43.538;-5.688;2022-11-03T01:24:13;101189.13;;;15.99;64.54
73220;BME280;61434;43.538;-5.688;2022-11-03T01:26:39;101186.44;;;15.99;64.55
73220;BME280;61434;43.538;-5.688;2022-11-03T01:29:04;101182.78;;;15.72;65.13
73220;BME280;61434;43.538;-5.688;2022-11-03T01:31:30;101168.41;;;15.80;64.94
73220;BME280;61434;43.538;-5.688;2022-11-03T01:33:56;101174.41;;;15.83;65.12
73220;BME280;61434;43.538;-5.688;2022-11-03T01:36:22;101169.19;;;15.90;64.65
73220;BME280;61434;43.538;-5.688;2022-11-03T01:38:48;101163.16;;;15.96;64.52
73220;BME280;61434;43.538;-5.688;2022-11-03T01:41:19;101156.06;;;15.85;64.86
73220;BME280;61434;43.538;-5.688;2022-11-03T01:46:31;101139.00;;;15.75;64.44
73220;BME280;61434;43.538;-5.688;2022-11-03T01:49:02;101137.84;;;15.96;64.51
73220;BME280;61434;43.538;-5.688;2022-11-03T01:51:30;101143.19;;;15.87;64.51
73220;BME280;61434;43.538;-5.688;2022-11-03T01:53:58;101128.38;;;15.82;64.51
73220;BME280;61434;43.538;-5.688;2022-11-03T01:56:25;101125.28;;;15.77;64.49
73220;BME280;61434;43.538;-5.688;2022-11-03T01:58:54;101128.78;;;15.87;63.76
73220;BME280;61434;43.538;-5.688;2022-11-03T02:01:20;101121.78;;;15.84;63.72
73220;BME280;61434;43.538;-5.688;2022-11-03T02:03:50;101116.34;;;15.84;63.55
73220;BME280;61434;43.538;-5.688;2022-11-03T02:06:19;101108.91;;;15.86;64.27
73220;BME280;61434;43.538;-5.688;2022-11-03T02:09:04;101113.69;;;15.93;64.38
73220;BME280;61434;43.538;-5.688;2022-11-03T02:11:32;101120.00;;;15.93;64.75
73220;BME280;61434;43.538;-5.688;2022-11-03T02:14:16;101114.25;;;15.78;65.13
73220;BME280;61434;43.538;-5.688;2022-11-03T02:16:53;101101.06;;;15.83;64.98
73220;BME280;61434;43.538;-5.688;2022-11-03T02:19:40;101090.94;;;15.94;64.94
73220;BME280;61434;43.538;-5.688;2022-11-03T02:24:49;101082.13;;;15.92;65.34
73220;BME280;61434;43.538;-5.688;2022-11-03T02:27:15;101083.06;;;15.82;65.92
73220;BME280;61434;43.538;-5.688;2022-11-03T02:29:41;101087.00;;;15.88;65.97
73220;BME280;61434;43.538;-5.688;2022-11-03T02:37:35;101066.91;;;15.81;65.75
73220;BME280;61434;43.538;-5.688;2022-11-03T02:40:12;101073.81;;;15.75;66.01
73220;BME280;61434;43.538;-5.688;2022-11-03T02:42:41;101079.72;;;15.71;65.54
73220;BME280;61434;43.538;-5.688;2022-11-03T02:45:09;101061.72;;;15.70;65.96
73220;BME280;61434;43.538;-5.688;2022-11-03T02:47:38;101064.59;;;15.68;66.01
73220;BME280;61434;43.538;-5.688;2022-11-03T02:50:06;101059.72;;;15.72;65.85
73220;BME280;61434;43.538;-5.688;2022-11-03T02:52:45;101054.25;;;15.89;65.44
73220;BME280;61434;43.538;-5.688;2022-11-03T03:03:30;101052.47;;;15.80;65.68
73220;BME280;61434;43.538;-5.688;2022-11-03T03:06:02;101059.16;;;15.86;65.58
73220;BME280;61434;43.538;-5.688;2022-11-03T03:08:33;101054.56;;;15.86;66.01
73220;BME280;61434;43.538;-5.688;2022-11-03T03:11:02;101057.91;;;15.80;66.27
73220;BME280;61434;43.538;-5.688;2022-11-03T03:13:29;101039.91;;;15.79;66.23
73220;BME280;61434;43.538;-5.688;2022-11-03T03:21:23;100976.22;;;15.74;66.27
73220;BME280;61434;43.538;-5.688;2022-11-03T03:23:56;100982.19;;;15.77;66.00
73220;BME280;61434;43.538;-5.688;2022-11-03T03:26:29;100961.31;;;15.78;65.75
73220;BME280;61434;43.538;-5.688;2022-11-03T03:29:02;100971.00;;;15.62;66.01
73220;BME280;61434;43.538;-5.688;2022-11-03T03:31:32;100956.72;;;15.78;66.00
73220;BME280;61434;43.538;-5.688;2022-11-03T03:34:00;100963.22;;;15.85;66.52
73220;BME280;61434;43.538;-5.688;2022-11-03T03:36:27;100961.13;;;15.79;67.03
73220;BME280;61434;43.538;-5.688;2022-11-03T03:39:01;100952.88;;;15.89;67.05
73220;BME280;61434;43.538;-5.688;2022-11-03T03:41:28;100958.06;;;15.74;66.94
73220;BME280;61434;43.538;-5.688;2022-11-03T03:44:00;100952.22;;;15.87;66.53
73220;BME280;61434;43.538;-5.688;2022-11-03T03:46:34;100953.31;;;15.76;66.58
73220;BME280;61434;43.538;-5.688;2022-11-03T03:49:01;100946.91;;;15.85;66.57
73220;BME280;61434;43.538;-5.688;2022-11-03T03:51:28;100939.84;;;15.93;66.35
73220;BME280;61434;43.538;-5.688;2022-11-03T03:53:54;100931.31;;;15.87;66.15
73220;BME280;61434;43.538;-5.688;2022-11-03T03:56:24;100925.72;;;15.89;66.23
73220;BME280;61434;43.538;-5.688;2022-11-03T03:58:51;100941.44;;;15.77;66.00
73220;BME280;61434;43.538;-5.688;2022-11-03T04:01:16;100933.13;;;15.79;66.15
73220;BME280;61434;43.538;-5.688;2022-11-03T04:03:42;100916.47;;;15.74;66.46
73220;BME280;61434;43.538;-5.688;2022-11-03T04:06:08;100912.25;;;15.79;66.75
73220;BME280;61434;43.538;-5.688;2022-11-03T04:08:34;100903.94;;;15.81;66.08
73220;BME280;61434;43.538;-5.688;2022-11-03T04:10:59;100909.00;;;15.76;66.00
73220;BME280;61434;43.538;-5.688;2022-11-03T04:13:43;100915.94;;;15.70;65.46
73220;BME280;61434;43.538;-5.688;2022-11-03T04:16:27;100902.72;;;15.75;65.33
73220;BME280;61434;43.538;-5.688;2022-11-03T04:19:11;100904.81;;;15.81;65.25
73220;BME280;61434;43.538;-5.688;2022-11-03T04:21:55;100899.09;;;15.93;65.27
73220;BME280;61434;43.538;-5.688;2022-11-03T04:24:39;100902.94;;;15.82;65.76
73220;BME280;61434;43.538;-5.688;2022-11-03T04:27:26;100894.19;;;15.70;65.99
73220;BME280;61434;43.538;-5.688;2022-11-03T04:29:56;100894.91;;;15.72;66.09
73220;BME280;61434;43.538;-5.688;2022-11-03T04:32:22;100880.63;;;15.70;66.09
73220;BME280;61434;43.538;-5.688;2022-11-03T04:34:48;100881.00;;;15.75;65.99
73220;BME280;61434;43.538;-5.688;2022-11-03T04:37:14;100887.97;;;15.78;65.73
73220;BME280;61434;43.538;-5.688;2022-11-03T04:39:40;100886.59;;;15.74;65.35
73220;BME280;61434;43.538;-5.688;2022-11-03T04:42:20;100874.72;;;15.57;66.24
73220;BME280;61434;43.538;-5.688;2022-11-03T04:44:46;100871.97;;;15.67;65.88
73220;BME280;61434;43.538;-5.688;2022-11-03T04:47:14;100878.94;;;15.69;65.52
73220;BME280;61434;43.538;-5.688;2022-11-03T04:49:40;100879.22;;;15.66;65.51
73220;BME280;61434;43.538;-5.688;2022-11-03T04:52:18;100881.34;;;15.72;65.20
73220;BME280;61434;43.538;-5.688;2022-11-03T04:54:46;100876.22;;;15.69;65.40
73220;BME280;61434;43.538;-5.688;2022-11-03T04:57:13;100870.47;;;15.72;65.20
73220;BME280;61434;43.538;-5.688;2022-11-03T04:59:44;100868.47;;;15.82;64.85
73220;BME280;61434;43.538;-5.688;2022-11-03T05:02:15;100869.03;;;15.86;64.97
73220;BME280;61434;43.538;-5.688;2022-11-03T05:04:41;100872.09;;;15.91;64.80
73220;BME280;61434;43.538;-5.688;2022-11-03T05:07:32;100876.47;;;15.84;64.61
73220;BME280;61434;43.538;-5.688;2022-11-03T05:09:59;100876.63;;;15.82;64.79
73220;BME280;61434;43.538;-5.688;2022-11-03T05:12:25;100879.28;;;15.74;65.15
73220;BME280;61434;43.538;-5.688;2022-11-03T05:14:51;100891.59;;;15.86;64.85
73220;BME280;61434;43.538;-5.688;2022-11-03T05:17:23;100882.44;;;15.87;64.96
73220;BME280;61434;43.538;-5.688;2022-11-03T05:20:00;100874.47;;;15.86;65.07
73220;BME280;61434;43.538;-5.688;2022-11-03T05:22:32;100883.09;;;15.81;65.03
73220;BME280;61434;43.538;-5.688;2022-11-03T05:25:03;100887.63;;;15.81;65.42
73220;BME280;61434;43.538;-5.688;2022-11-03T05:27:35;100889.25;;;15.92;64.83
73220;BME280;61434;43.538;-5.688;2022-11-03T05:30:00;100886.56;;;16.00;65.94
73220;BME280;61434;43.538;-5.688;2022-11-03T05:32:29;100890.66;;;16.04;65.11
73220;BME280;61434;43.538;-5.688;2022-11-03T05:34:55;100887.66;;;16.15;65.30
73220;BME280;61434;43.538;-5.688;2022-11-03T05:39:48;100873.53;;;16.11;64.58
73220;BME280;61434;43.538;-5.688;2022-11-03T05:42:24;100879.47;;;16.07;64.71
73220;BME280;61434;43.538;-5.688;2022-11-03T05:44:51;100867.03;;;16.04;65.04
73220;BME280;61434;43.538;-5.688;2022-11-03T05:47:23;100867.88;;;15.97;64.30
73220;BME280;61434;43.538;-5.688;2022-11-03T05:49:53;100859.56;;;15.98;63.76
73220;BME280;61434;43.538;-5.688;2022-11-03T05:52:23;100868.44;;;16.08;63.32
73220;BME280;61434;43.538;-5.688;2022-11-03T05:54:55;100851.75;;;16.03;62.84
73220;BME280;61434;43.538;-5.688;2022-11-03T05:57:24;100864.81;;;15.92;64.16
73220;BME280;61434;43.538;-5.688;2022-11-03T05:59:53;100860.47;;;15.81;63.95
73220;BME280;61434;43.538;-5.688;2022-11-03T06:02:43;100854.75;;;16.26;67.58
73220;BME280;61434;43.538;-5.688;2022-11-03T06:05:18;100851.97;;;16.10;64.65
73220;BME280;61434;43.538;-5.688;2022-11-03T06:07:44;100845.00;;;16.07;66.28
73220;BME280;61434;43.538;-5.688;2022-11-03T06:10:40;100845.56;;;15.85;64.13
73220;BME280;61434;43.538;-5.688;2022-11-03T06:15:45;100865.13;;;15.88;64.79
73220;BME280;61434;43.538;-5.688;2022-11-03T06:18:21;100853.03;;;15.83;64.13
73220;BME280;61434;43.538;-5.688;2022-11-03T06:20:55;100841.50;;;15.89;64.66
73220;BME280;61434;43.538;-5.688;2022-11-03T06:23:22;100865.81;;;15.90;64.24
73220;BME280;61434;43.538;-5.688;2022-11-03T06:25:48;100858.41;;;15.75;64.06
73220;BME280;61434;43.538;-5.688;2022-11-03T06:28:35;100850.38;;;15.99;64.00
73220;BME280;61434;43.538;-5.688;2022-11-03T06:31:20;100859.88;;;15.95;63.04
73220;BME280;61434;43.538;-5.688;2022-11-03T06:33:47;100859.75;;;16.05;63.65
73220;BME280;61434;43.538;-5.688;2022-11-03T06:36:18;100848.78;;;16.23;64.00
73220;BME280;61434;43.538;-5.688;2022-11-03T06:38:49;100851.28;;;16.08;62.21
73220;BME280;61434;43.538;-5.688;2022-11-03T06:41:23;100863.03;;;16.16;62.61
73220;BME280;61434;43.538;-5.688;2022-11-03T06:43:49;100860.72;;;16.30;63.25
73220;BME280;61434;43.538;-5.688;2022-11-03T06:46:24;100852.72;;;16.36;63.25
73220;BME280;61434;43.538;-5.688;2022-11-03T06:48:58;100864.50;;;16.45;62.91
73220;BME280;61434;43.538;-5.688;2022-11-03T06:51:28;100859.53;;;16.40;62.21
73220;BME280;61434;43.538;-5.688;2022-11-03T06:53:57;100854.06;;;16.24;61.72
73220;BME280;61434;43.538;-5.688;2022-11-03T06:56:27;100866.28;;;16.28;61.79
73220;BME280;61434;43.538;-5.688;2022-11-03T06:58:54;100876.53;;;16.34;61.12
73220;BME280;61434;43.538;-5.688;2022-11-03T07:01:26;100872.44;;;16.30;61.63
73220;BME280;61434;43.538;-5.688;2022-11-03T07:03:59;100871.75;;;16.36;61.37
73220;BME280;61434;43.538;-5.688;2022-11-03T07:06:31;100875.00;;;16.40;61.07
73220;BME280;61434;43.538;-5.688;2022-11-03T07:09:00;100883.66;;;16.35;60.70
73220;BME280;61434;43.538;-5.688;2022-11-03T07:11:30;100882.81;;;16.35;60.04
73220;BME280;61434;43.538;-5.688;2022-11-03T07:19:56;100884.53;;;16.44;60.27
73220;BME280;61434;43.538;-5.688;2022-11-03T07:22:25;100890.81;;;16.45;60.23
73220;BME280;61434;43.538;-5.688;2022-11-03T07:24:55;100891.19;;;16.50;60.58
73220;BME280;61434;43.538;-5.688;2022-11-03T07:27:36;100895.59;;;16.51;60.24
73220;BME280;61434;43.538;-5.688;2022-11-03T07:32:37;100901.38;;;16.56;60.34
73220;BME280;61434;43.538;-5.688;2022-11-03T07:35:16;100904.94;;;16.56;60.39
73220;BME280;61434;43.538;-5.688;2022-11-03T07:37:45;100915.69;;;16.66;60.24
73220;BME280;61434;43.538;-5.688;2022-11-03T07:40:18;100931.91;;;16.76;60.40
73220;BME280;61434;43.538;-5.688;2022-11-03T07:42:46;100937.63;;;16.64;60.38
73220;BME280;61434;43.538;-5.688;2022-11-03T07:48:25;100955.03;;;16.80;60.54
73220;BME280;61434;43.538;-5.688;2022-11-03T07:50:56;100945.00;;;16.80;61.13
73220;BME280;61434;43.538;-5.688;2022-11-03T07:53:38;100948.75;;;16.79;61.30
73220;BME280;61434;43.538;-5.688;2022-11-03T08:04:12;100985.59;;;17.40;61.22
73220;BME280;61434;43.538;-5.688;2022-11-03T08:06:41;100985.09;;;17.45;62.32
73220;BME280;61434;43.538;-5.688;2022-11-03T08:09:06;100989.00;;;17.67;62.29
73220;BME280;61434;43.538;-5.688;2022-11-03T08:11:32;100978.97;;;17.92;61.71
73220;BME280;61434;43.538;-5.688;2022-11-03T08:13:58;100998.50;;;18.20;60.97
73220;BME280;61434;43.538;-5.688;2022-11-03T08:16:24;100996.59;;;18.29;60.81
73220;BME280;61434;43.538;-5.688;2022-11-03T08:18:49;101010.53;;;18.42;60.83
73220;BME280;61434;43.538;-5.688;2022-11-03T08:21:15;101010.81;;;18.71;60.20
73220;BME280;61434;43.538;-5.688;2022-11-03T08:23:41;101014.34;;;18.80;59.70
73220;BME280;61434;43.538;-5.688;2022-11-03T08:26:07;101024.00;;;18.91;59.42
73220;BME280;61434;43.538;-5.688;2022-11-03T08:28:33;101020.56;;;18.97;59.52
73220;BME280;61434;43.538;-5.688;2022-11-03T08:30:58;101031.03;;;18.85;60.39
73220;BME280;61434;43.538;-5.688;2022-11-03T08:33:32;101034.34;;;19.12;60.05
73220;BME280;61434;43.538;-5.688;2022-11-03T08:35:58;101046.41;;;19.17;59.65
73220;BME280;61434;43.538;-5.688;2022-11-03T08:38:24;101048.09;;;19.18;59.20
73220;BME280;61434;43.538;-5.688;2022-11-03T08:40:50;101106.22;;;19.35;60.09
73220;BME280;61434;43.538;-5.688;2022-11-03T08:43:15;101145.00;;;18.83;65.68
73220;BME280;61434;43.538;-5.688;2022-11-03T08:45:41;101160.88;;;18.47;68.65
73220;BME280;61434;43.538;-5.688;2022-11-03T08:48:06;101164.97;;;18.18;70.63
73220;BME280;61434;43.538;-5.688;2022-11-03T08:50:32;101180.44;;;17.85;72.78
73220;BME280;61434;43.538;-5.688;2022-11-03T08:52:57;101188.63;;;17.85;73.41
73220;BME280;61434;43.538;-5.688;2022-11-03T08:55:23;101191.84;;;17.81;73.68
73220;BME280;61434;43.538;-5.688;2022-11-03T08:57:49;101204.31;;;17.83;73.98
73220;BME280;61434;43.538;-5.688;2022-11-03T09:00:14;101212.16;;;17.94;73.97
73220;BME280;61434;43.538;-5.688;2022-11-03T09:02:44;101241.75;;;17.47;75.79
73220;BME280;61434;43.538;-5.688;2022-11-03T09:05:11;101242.28;;;17.51;75.92
73220;BME280;61434;43.538;-5.688;2022-11-03T09:07:40;101250.59;;;17.41;76.35
73220;BME280;61434;43.538;-5.688;2022-11-03T09:10:07;101264.50;;;17.38;76.48
73220;BME280;61434;43.538;-5.688;2022-11-03T09:12:33;101281.06;;;17.44;76.75
73220;BME280;61434;43.538;-5.688;2022-11-03T09:14:59;101292.47;;;17.48;76.90
73220;BME280;61434;43.538;-5.688;2022-11-03T09:17:24;101298.22;;;17.37;77.67
73220;BME280;61434;43.538;-5.688;2022-11-03T09:19:50;101302.44;;;17.31;76.01
73220;BME280;61434;43.538;-5.688;2022-11-03T09:22:15;101290.69;;;17.31;77.30
73220;BME280;61434;43.538;-5.688;2022-11-03T09:24:41;101301.63;;;17.39;75.65
73220;BME280;61434;43.538;-5.688;2022-11-03T09:27:07;101308.44;;;17.35;75.62
73220;BME280;61434;43.538;-5.688;2022-11-03T09:29:32;101298.50;;;17.26;75.44
73220;BME280;61434;43.538;-5.688;2022-11-03T09:31:58;101309.78;;;17.39;76.07
73220;BME280;61434;43.538;-5.688;2022-11-03T09:34:23;101320.78;;;17.29;75.25
73220;BME280;61434;43.538;-5.688;2022-11-03T09:36:49;101309.69;;;17.23;76.25
73220;BME280;61434;43.538;-5.688;2022-11-03T09:39:15;101327.53;;;17.17;75.72
73220;BME280;61434;43.538;-5.688;2022-11-03T09:41:40;101342.53;;;17.21;75.86
73220;BME280;61434;43.538;-5.688;2022-11-03T09:44:06;101323.69;;;17.02;76.62
73220;BME280;61434;43.538;-5.688;2022-11-03T09:46:32;101334.41;;;17.29;76.33
73220;BME280;61434;43.538;-5.688;2022-11-03T09:49:00;101342.53;;;17.47;75.39
73220;BME280;61434;43.538;-5.688;2022-11-03T09:51:27;101352.34;;;17.14;75.64
73220;BME280;61434;43.538;-5.688;2022-11-03T09:53:55;101337.22;;;17.19;76.36
73220;BME280;61434;43.538;-5.688;2022-11-03T09:56:24;101356.19;;;17.55;76.35
73220;BME280;61434;43.538;-5.688;2022-11-03T09:58:50;101349.00;;;17.20;76.73
73220;BME280;61434;43.538;-5.688;2022-11-03T10:01:15;101367.22;;;17.02;76.96
73220;BME280;61434;43.538;-5.688;2022-11-03T10:03:41;101377.69;;;17.14;77.61
73220;BME280;61434;43.538;-5.688;2022-11-03T10:06:07;101398.56;;;17.06;75.84
73220;BME280;61434;43.538;-5.688;2022-11-03T10:08:34;101407.72;;;17.05;75.88
73220;BME280;61434;43.538;-5.688;2022-11-03T10:11:02;101408.03;;;16.84;74.60
73220;BME280;61434;43.538;-5.688;2022-11-03T10:13:34;101417.28;;;17.09;75.82
73220;BME280;61434;43.538;-5.688;2022-11-03T10:16:02;101417.72;;;16.68;74.62
73220;BME280;61434;43.538;-5.688;2022-11-03T10:18:29;101418.56;;;16.69;73.98
73220;BME280;61434;43.538;-5.688;2022-11-03T10:20:58;101404.72;;;16.72;74.67
73220;BME280;61434;43.538;-5.688;2022-11-03T10:23:26;101410.06;;;16.82;74.75
73220;BME280;61434;43.538;-5.688;2022-11-03T10:26:18;101426.16;;;16.93;75.22
73220;BME280;61434;43.538;-5.688;2022-11-03T10:29:04;101433.59;;;16.91;73.87
73220;BME280;61434;43.538;-5.688;2022-11-03T10:31:37;101445.56;;;16.80;73.96
73220;BME280;61434;43.538;-5.688;2022-11-03T10:34:05;101433.22;;;16.86;73.83
73220;BME280;61434;43.538;-5.688;2022-11-03T10:36:32;101428.53;;;17.32;74.21
73220;BME280;61434;43.538;-5.688;2022-11-03T10:38:59;101442.31;;;17.12;73.35
73220;BME280;61434;43.538;-5.688;2022-11-03T10:41:55;101442.16;;;17.14;72.46
73220;BME280;61434;43.538;-5.688;2022-11-03T10:44:25;101451.97;;;17.07;72.61
73220;BME280;61434;43.538;-5.688;2022-11-03T10:47:02;101474.16;;;17.30;72.88
73220;BME280;61434;43.538;-5.688;2022-11-03T10:49:35;101470.16;;;16.88;72.43
73220;BME280;61434;43.538;-5.688;2022-11-03T10:52:15;101483.78;;;15.86;75.89
73220;BME280;61434;43.538;-5.688;2022-11-03T10:54:44;101479.78;;;15.90;77.29
73220;BME280;61434;43.538;-5.688;2022-11-03T10:57:09;101495.69;;;16.13;76.51
73220;BME280;61434;43.538;-5.688;2022-11-03T10:59:36;101481.41;;;16.11;75.41
73220;BME280;61434;43.538;-5.688;2022-11-03T11:02:12;101489.69;;;16.47;75.33
73220;BME280;61434;43.538;-5.688;2022-11-03T11:04:39;101486.41;;;16.15;76.63
73220;BME280;61434;43.538;-5.688;2022-11-03T11:07:37;101510.13;;;16.51;74.88
73220;BME280;61434;43.538;-5.688;2022-11-03T11:28:45;101499.81;;;17.45;71.17
73220;BME280;61434;43.538;-5.688;2022-11-03T11:31:31;101513.56;;;17.79;69.89
73220;BME280;61434;43.538;-5.688;2022-11-03T11:36:36;101540.28;;;17.40;70.43
73220;BME280;61434;43.538;-5.688;2022-11-03T11:54:57;101579.41;;;17.92;67.27
73220;BME280;61434;43.538;-5.688;2022-11-03T11:57:22;101561.91;;;17.77;67.86
73220;BME280;61434;43.538;-5.688;2022-11-03T11:59:49;101562.72;;;17.95;67.41
73220;BME280;61434;43.538;-5.688;2022-11-03T12:02:22;101572.31;;;18.00;68.12
73220;BME280;61434;43.538;-5.688;2022-11-03T12:04:52;101578.66;;;18.26;67.59
73220;BME280;61434;43.538;-5.688;2022-11-03T12:07:34;101589.78;;;17.89;68.41
73220;BME280;61434;43.538;-5.688;2022-11-03T12:10:28;101579.56;;;17.91;68.36
73220;BME280;61434;43.538;-5.688;2022-11-03T12:12:55;101574.81;;;17.93;67.56
73220;BME280;61434;43.538;-5.688;2022-11-03T12:15:55;101579.50;;;17.83;66.17
73220;BME280;61434;43.538;-5.688;2022-11-03T12:18:41;101583.50;;;18.14;65.70
73220;BME280;61434;43.538;-5.688;2022-11-03T12:21:08;101587.06;;;18.15;66.63
73220;BME280;61434;43.538;-5.688;2022-11-03T12:28:51;101592.69;;;18.13;67.43
73220;BME280;61434;43.538;-5.688;2022-11-03T12:31:16;101589.16;;;17.77;65.28
73220;BME280;61434;43.538;-5.688;2022-11-03T12:33:42;101590.44;;;17.37;67.32
73220;BME280;61434;43.538;-5.688;2022-11-03T12:36:08;101588.50;;;17.48;67.54
73220;BME280;61434;43.538;-5.688;2022-11-03T12:38:34;101597.91;;;17.35;66.65
73220;BME280;61434;43.538;-5.688;2022-11-03T12:40:59;101605.66;;;17.12;66.45
73220;BME280;61434;43.538;-5.688;2022-11-03T12:43:45;101629.94;;;17.24;66.83
73220;BME280;61434;43.538;-5.688;2022-11-03T12:46:10;101610.06;;;17.41;65.76
73220;BME280;61434;43.538;-5.688;2022-11-03T12:48:36;101600.56;;;17.45;66.57
73220;BME280;61434;43.538;-5.688;2022-11-03T12:51:02;101602.78;;;17.77;66.02
73220;BME280;61434;43.538;-5.688;2022-11-03T12:53:28;101599.53;;;17.28;67.27
73220;BME280;61434;43.538;-5.688;2022-11-03T12:55:53;101610.97;;;16.86;68.00
73220;BME280;61434;43.538;-5.688;2022-11-03T12:58:19;101603.81;;;17.31;67.56
73220;BME280;61434;43.538;-5.688;2022-11-03T13:00:44;101595.16;;;17.17;67.01
73220;BME280;61434;43.538;-5.688;2022-11-03T13:03:10;101585.75;;;16.84;66.80
73220;BME280;61434;43.538;-5.688;2022-11-03T13:05:35;101588.63;;;17.10;66.83
73220;BME280;61434;43.538;-5.688;2022-11-03T13:08:01;101592.25;;;17.47;65.22
73220;BME280;61434;43.538;-5.688;2022-11-03T13:10:26;101589.06;;;17.69;62.62
73220;BME280;61434;43.538;-5.688;2022-11-03T13:12:52;101591.09;;;17.85;63.42
73220;BME280;61434;43.538;-5.688;2022-11-03T13:15:17;101599.06;;;17.78;63.07
73220;BME280;61434;43.538;-5.688;2022-11-03T13:17:43;101594.38;;;17.88;63.11
73220;BME280;61434;43.538;-5.688;2022-11-03T13:20:09;101595.44;;;17.95;63.42
73220;BME280;61434;43.538;-5.688;2022-11-03T13:22:35;101603.78;;;18.12;62.90
73220;BME280;61434;43.538;-5.688;2022-11-03T13:25:00;101599.34;;;17.93;61.38
73220;BME280;61434;43.538;-5.688;2022-11-03T13:27:26;101589.13;;;18.13;61.06
73220;BME280;61434;43.538;-5.688;2022-11-03T13:29:51;101594.94;;;18.18;60.65
73220;BME280;61434;43.538;-5.688;2022-11-03T13:32:17;101576.31;;;18.39;60.55
73220;BME280;61434;43.538;-5.688;2022-11-03T13:34:42;101590.25;;;18.54;59.75
73220;BME280;61434;43.538;-5.688;2022-11-03T13:37:08;101591.03;;;18.73;59.04
73220;BME280;61434;43.538;-5.688;2022-11-03T13:39:33;101584.72;;;18.72;59.30
73220;BME280;61434;43.538;-5.688;2022-11-03T13:41:58;101579.72;;;18.93;57.96
73220;BME280;61434;43.538;-5.688;2022-11-03T13:44:24;101584.50;;;19.00;57.95
73220;BME280;61434;43.538;-5.688;2022-11-03T13:46:50;101588.00;;;18.76;58.42
73220;BME280;61434;43.538;-5.688;2022-11-03T13:49:15;101601.66;;;18.58;58.53
73220;BME280;61434;43.538;-5.688;2022-11-03T13:51:41;101613.41;;;18.76;57.21
73220;BME280;61434;43.538;-5.688;2022-11-03T13:54:06;101596.84;;;18.69;57.56
73220;BME280;61434;43.538;-5.688;2022-11-03T13:56:32;101614.63;;;18.56;57.97
73220;BME280;61434;43.538;-5.688;2022-11-03T13:58:57;101599.13;;;18.56;57.21
73220;BME280;61434;43.538;-5.688;2022-11-03T14:01:23;101596.00;;;18.51;56.83
73220;BME280;61434;43.538;-5.688;2022-11-03T14:03:48;101588.75;;;18.68;55.93
73220;BME280;61434;43.538;-5.688;2022-11-03T14:06:14;101584.63;;;18.56;55.62
73220;BME280;61434;43.538;-5.688;2022-11-03T14:08:39;101584.44;;;18.83;54.70
73220;BME280;61434;43.538;-5.688;2022-11-03T14:11:05;101588.41;;;18.63;53.69
73220;BME280;61434;43.538;-5.688;2022-11-03T14:13:49;101587.81;;;18.77;53.64
73220;BME280;61434;43.538;-5.688;2022-11-03T14:16:15;101577.63;;;18.87;54.05
73220;BME280;61434;43.538;-5.688;2022-11-03T14:18:40;101581.53;;;18.59;52.85
73220;BME280;61434;43.538;-5.688;2022-11-03T14:21:06;101596.94;;;18.68;54.24
73220;BME280;61434;43.538;-5.688;2022-11-03T14:23:31;101585.47;;;18.56;54.21